Time;durP1;ratioP1;P1;durP2;ratioP2;P2;SDS_P1;SDS_P2;PMS_P1;PMS_P2;Temp;Humidity;BMP_temperature;BMP_pressure;BME280_temperature;BME280_humidity;BME280_pressure;Samples;Min_cycle;Max_cycle;Signal;HPM_P1;HPM_P2
2022/06/20 00:00:25;;;;;;;7.47;3.58;;;;;;;25.58;65.94;99264.56;5052400;28;20116;-66
2022/06/20 00:02:54;;;;;;;7.88;4.30;;;;;;;25.53;66.46;99273.22;5034840;28;20485;-66
2022/06/20 00:05:23;;;;;;;7.72;3.20;;;;;;;25.50;66.92;99268.09;5033674;28;20029;-66
2022/06/20 00:07:48;;;;;;;10.13;4.15;;;;;;;25.45;67.67;99256.81;5032842;28;20022;-66
2022/06/20 00:10:17;;;;;;;8.93;3.78;;;;;;;25.36;68.48;99249.63;5032261;28;20029;-66
2022/06/20 00:12:43;;;;;;;8.02;4.00;;;;;;;25.28;69.30;99252.28;5036018;28;20086;-66
2022/06/20 00:15:32;;;;;;;6.68;3.42;;;;;;;25.22;nan;99247.47;5051896;28;20435;-66
2022/06/20 00:17:58;;;;;;;12.48;4.50;;;;;;;25.12;69.51;99244.03;5051327;28;20036;-66
2022/06/20 00:20:25;;;;;;;8.07;3.97;;;;;;;25.05;69.67;99231.19;5052466;28;20496;-66
2022/06/20 00:22:50;;;;;;;8.25;3.65;;;;;;;25.06;70.30;99241.09;5053887;28;20033;-66
2022/06/20 00:25:16;;;;;;;10.00;4.70;;;;;;;25.05;69.96;99236.63;5035853;28;20026;-66
2022/06/20 00:27:43;;;;;;;9.85;4.18;;;;;;;25.01;69.72;99233.38;5059368;28;20031;-66
2022/06/20 00:30:10;;;;;;;7.68;4.22;;;;;;;24.97;70.37;99234.72;5068951;28;20480;-66
2022/06/20 00:32:36;;;;;;;7.72;3.83;;;;;;;24.88;70.25;99232.94;5034464;28;20492;-66
2022/06/20 00:35:02;;;;;;;8.90;3.88;;;;;;;24.83;71.70;99238.00;5033565;28;20037;-66
2022/06/20 00:37:27;;;;;;;8.55;4.00;;;;;;;24.65;71.79;99229.00;5033294;28;20025;-66
2022/06/20 00:39:53;;;;;;;10.45;4.13;;;;;;;24.72;72.51;99240.13;5044203;28;20032;-66
2022/06/20 00:42:18;;;;;;;10.70;4.22;;;;;;;24.73;71.99;99242.69;5053392;28;20127;-66
2022/06/20 00:44:52;;;;;;;7.28;3.92;;;;;;;24.70;71.88;99237.56;5053563;28;20028;-66
2022/06/20 00:47:22;;;;;;;6.65;3.78;;;;;;;24.65;73.08;99234.44;5053409;28;20033;-66
2022/06/20 00:50:06;;;;;;;8.85;4.30;;;;;;;24.56;72.88;99229.94;5053290;28;20074;-66
2022/06/20 00:52:31;;;;;;;7.45;3.85;;;;;;;24.48;72.61;99233.44;5052964;28;20045;-66
2022/06/20 00:55:00;;;;;;;8.70;3.80;;;;;;;24.49;72.34;99237.03;5053021;28;20434;-66
2022/06/20 00:57:38;;;;;;;9.23;4.18;;;;;;;24.40;72.48;99243.38;5052806;28;20086;-66
2022/06/20 01:00:14;;;;;;;8.85;3.90;;;;;;;24.38;72.57;99240.00;5053103;28;20025;-66
2022/06/20 01:02:56;;;;;;;8.75;4.32;;;;;;;24.40;73.61;99248.81;5052930;28;20400;-66
2022/06/20 01:05:32;;;;;;;10.02;4.07;;;;;;;24.28;73.85;99244.66;5052915;28;20037;-66
2022/06/20 01:08:07;;;;;;;9.40;3.95;;;;;;;24.22;75.43;99245.25;5052664;28;20029;-66
2022/06/20 01:10:43;;;;;;;9.75;4.15;;;;;;;24.17;76.18;99250.28;5052904;28;20043;-66
2022/06/20 01:13:16;;;;;;;9.05;3.60;;;;;;;24.08;75.93;99241.22;5052319;28;20049;-66
2022/06/20 01:15:43;;;;;;;6.32;3.40;;;;;;;23.97;76.55;99235.94;5051359;28;20025;-66
2022/06/20 01:18:22;;;;;;;9.68;3.95;;;;;;;23.93;76.82;99233.69;5052484;28;20111;-66
2022/06/20 01:20:50;;;;;;;11.23;4.22;;;;;;;23.76;77.73;99237.22;5052988;28;20102;-66
2022/06/20 01:24:00;;;;;;;10.15;4.60;;;;;;;23.67;78.52;99243.56;5050842;28;20100;-66
2022/06/20 01:26:39;;;;;;;15.65;4.78;;;;;;;23.61;78.89;99250.44;5039976;28;20113;-66
2022/06/20 01:29:08;;;;;;;8.30;3.97;;;;;;;23.56;79.49;99247.34;5068984;28;20031;-66
2022/06/20 01:31:49;;;;;;;10.57;4.65;;;;;;;23.53;80.29;99249.47;5070392;28;20158;-66
2022/06/20 01:34:17;;;;;;;8.20;4.25;;;;;;;23.53;80.82;99244.06;5072450;28;20035;-66
2022/06/20 01:39:34;;;;;;;10.98;4.07;;;;;;;23.56;81.53;99241.06;5072500;28;20036;-66
2022/06/20 01:42:19;;;;;;;9.75;4.43;;;;;;;23.49;81.72;99245.38;5072193;28;20028;-66
2022/06/20 01:44:55;;;;;;;10.25;4.00;;;;;;;23.49;81.56;99256.22;5071949;28;20027;-66
2022/06/20 01:47:21;;;;;;;8.05;4.05;;;;;;;23.43;81.53;99247.69;5071917;28;20054;-66
2022/06/20 01:49:52;;;;;;;8.40;4.35;;;;;;;23.50;81.08;99247.06;5072073;28;20373;-66
2022/06/20 01:52:38;;;;;;;10.32;4.28;;;;;;;23.37;81.63;99256.44;5051563;28;20029;-66
2022/06/20 01:55:18;;;;;;;11.65;4.93;;;;;;;23.30;82.37;99252.59;5046680;28;20473;-66
2022/06/20 01:57:47;;;;;;;8.05;4.18;;;;;;;23.34;81.67;99259.41;5051799;28;20020;-66
2022/06/20 02:00:15;;;;;;;8.95;4.45;;;;;;;23.40;81.81;99258.84;5051631;28;20480;-66
2022/06/20 02:02:47;;;;;;;7.97;4.45;;;;;;;23.43;81.26;99241.38;5051741;28;20111;-66
2022/06/20 02:05:18;;;;;;;8.20;4.60;;;;;;;23.35;82.47;99242.16;5051753;28;20496;-66
2022/06/20 02:07:44;;;;;;;8.68;4.28;;;;;;;23.40;82.15;99247.13;5051875;28;20450;-66
2022/06/20 02:10:13;;;;;;;7.90;3.97;;;;;;;23.42;82.60;99265.00;5051703;28;20060;-66
2022/06/20 02:12:39;;;;;;;10.27;4.18;;;;;;;23.49;82.12;99261.66;5051228;28;20048;-66
2022/06/20 02:15:07;;;;;;;8.45;4.50;;;;;;;23.53;81.05;99253.06;5051692;28;20021;-66
2022/06/20 02:17:38;;;;;;;7.20;3.95;;;;;;;23.59;81.35;99257.88;5051788;28;20056;-66
2022/06/20 02:20:11;;;;;;;11.23;4.55;;;;;;;23.67;80.82;99284.31;5051444;28;20017;-66
2022/06/20 02:22:38;;;;;;;8.25;4.47;;;;;;;23.70;81.91;99289.44;5051061;28;20029;-66
2022/06/20 02:25:08;;;;;;;6.75;4.43;;;;;;;23.75;81.15;99300.69;5036594;28;20029;-66
2022/06/20 02:27:39;;;;;;;10.27;4.15;;;;;;;23.79;80.53;99324.69;5054898;28;20105;-66
2022/06/20 02:30:07;;;;;;;7.13;4.20;;;;;;;23.87;79.90;99310.38;5071123;28;20058;-66
2022/06/20 02:32:37;;;;;;;9.10;4.32;;;;;;;23.97;79.51;99313.91;5069380;28;20033;-66
2022/06/20 02:35:06;;;;;;;9.95;4.38;;;;;;;24.00;79.54;99306.31;5033475;28;20146;-66
2022/06/20 02:37:34;;;;;;;7.90;4.22;;;;;;;23.93;80.51;99307.91;5030984;28;20095;-66
2022/06/20 02:40:03;;;;;;;10.45;4.32;;;;;;;23.95;81.61;99315.91;5031133;28;20033;-66
2022/06/20 02:42:37;;;;;;;7.20;3.90;;;;;;;23.87;82.30;99313.09;5033707;28;20055;-67
2022/06/20 02:45:07;;;;;;;7.82;4.55;;;;;;;23.77;82.72;99323.16;5036513;28;20037;-66
2022/06/20 02:47:34;;;;;;;8.18;3.95;;;;;;;23.70;83.70;99322.88;5030472;28;20560;-66
2022/06/20 02:50:02;;;;;;;11.82;4.75;;;;;;;23.68;84.24;99335.75;5028854;28;20034;-66
2022/06/20 02:52:36;;;;;;;8.55;4.22;;;;;;;23.65;85.29;99332.47;5028287;28;20033;-66
2022/06/20 02:55:02;;;;;;;7.85;4.72;;;;;;;23.62;84.92;99359.94;5042791;28;20025;-66
2022/06/20 02:57:38;;;;;;;11.32;4.30;;;;;;;23.52;84.49;99364.53;5047955;28;20032;-66
2022/06/20 03:00:11;;;;;;;11.00;4.63;;;;;;;23.53;85.20;99377.09;5048576;28;20124;-66
2022/06/20 03:02:38;;;;;;;11.68;4.35;;;;;;;23.50;85.63;99369.25;5049363;28;20029;-66
2022/06/20 03:05:05;;;;;;;10.13;4.80;;;;;;;23.46;86.51;99365.13;5049936;28;20359;-66
2022/06/20 03:07:36;;;;;;;8.05;4.65;;;;;;;23.49;86.80;99382.00;5048700;28;20050;-66
2022/06/20 03:10:24;;;;;;;10.40;4.80;;;;;;;23.49;87.68;99364.84;5048984;28;20472;-66
2022/06/20 03:12:50;;;;;;;11.45;4.18;;;;;;;23.50;88.40;99367.41;5048536;28;20048;-66
2022/06/20 03:15:16;;;;;;;10.27;4.85;;;;;;;23.58;87.24;99381.09;5048694;28;20047;-66
2022/06/20 03:17:45;;;;;;;10.48;4.50;;;;;;;23.57;87.06;99400.25;5049803;28;20033;-66
2022/06/20 03:20:13;;;;;;;10.40;4.88;;;;;;;23.71;86.06;99424.22;5050619;28;20024;-66
2022/06/20 03:22:49;;;;;;;11.93;4.85;;;;;;;23.60;86.42;99416.25;5045519;28;20103;-66
2022/06/20 03:25:15;;;;;;;10.38;5.00;;;;;;;23.61;86.39;99412.53;5046623;28;20180;-66
2022/06/20 03:27:42;;;;;;;13.73;5.65;;;;;;;23.63;87.43;99399.66;5063397;28;20031;-66
2022/06/20 03:30:37;;;;;;;18.58;5.70;;;;;;;23.65;87.19;99389.50;5070625;28;20024;-66
2022/06/20 03:33:06;;;;;;;13.43;5.25;;;;;;;23.73;86.70;99395.06;5069900;28;20085;-66
2022/06/20 03:35:33;;;;;;;14.00;5.40;;;;;;;23.78;85.72;99403.63;5069027;28;20093;-66
2022/06/20 03:38:02;;;;;;;9.10;4.53;;;;;;;23.77;85.75;99412.78;5070263;28;20032;-67
2022/06/20 03:40:28;;;;;;;8.63;4.45;;;;;;;23.73;86.15;99411.34;5070618;28;20107;-67
2022/06/20 03:42:56;;;;;;;13.05;4.80;;;;;;;23.75;84.73;99425.66;5069267;28;20111;-66
2022/06/20 03:45:24;;;;;;;11.57;4.70;;;;;;;23.78;84.08;99436.22;5039438;28;20021;-67
2022/06/20 03:48:02;;;;;;;15.63;5.78;;;;;;;23.77;83.90;99419.06;5030517;28;20021;-67
2022/06/20 03:50:35;;;;;;;14.57;6.05;;;;;;;23.76;82.92;99405.63;5030557;28;20139;-67
2022/06/20 03:53:19;;;;;;;11.38;4.82;;;;;;;23.81;83.37;99411.47;5030599;28;20029;-67
2022/06/20 03:55:52;;;;;;;9.73;5.18;;;;;;;23.76;83.64;99392.03;5032039;28;20036;-67
2022/06/20 03:58:27;;;;;;;7.95;4.50;;;;;;;23.81;84.00;99389.72;5034399;28;20029;-67
2022/06/20 04:01:14;;;;;;;11.25;4.78;;;;;;;23.75;83.06;99390.34;5033942;28;20428;-67
2022/06/20 04:03:48;;;;;;;12.98;4.43;;;;;;;23.75;81.81;99395.75;5034220;28;20021;-65
2022/06/20 04:06:25;;;;;;;10.60;5.20;;;;;;;23.82;82.58;99410.47;5033783;28;20062;-65
2022/06/20 04:12:06;;;;;;;10.65;4.20;;;;;;;23.86;80.36;99407.31;5048441;28;20090;-65
2022/06/20 04:14:47;;;;;;;9.60;4.03;;;;;;;23.86;78.43;99401.88;5053989;28;20037;-65
2022/06/20 04:20:43;;;;;;;9.10;3.92;;;;;;;24.00;78.84;99419.59;5053666;28;20094;-65
2022/06/20 04:23:23;;;;;;;8.73;4.30;;;;;;;24.03;78.20;99424.72;5053777;28;20476;-65
2022/06/20 04:26:00;;;;;;;7.55;3.65;;;;;;;24.06;78.52;99413.56;5046583;28;20417;-65
2022/06/20 04:28:40;;;;;;;9.88;4.20;;;;;;;24.06;77.12;99421.72;5050437;28;20075;-66
2022/06/20 04:31:25;;;;;;;10.45;4.93;;;;;;;24.03;76.17;99424.72;5048550;28;20110;-66
2022/06/20 04:34:09;;;;;;;10.80;4.32;;;;;;;24.10;75.53;99428.56;5053583;28;20033;-66
2022/06/20 04:36:46;;;;;;;8.50;3.95;;;;;;;23.99;75.27;99435.03;5053577;28;20055;-66
2022/06/20 04:39:23;;;;;;;10.05;3.92;;;;;;;23.97;74.44;99430.72;5051384;28;20072;-66
2022/06/20 04:41:55;;;;;;;11.23;3.80;;;;;;;23.93;75.12;99434.75;5033201;28;20112;-66
2022/06/20 04:44:55;;;;;;;9.98;3.92;;;;;;;23.89;76.12;99426.03;5033232;28;20454;-66
2022/06/20 04:47:31;;;;;;;10.82;4.05;;;;;;;23.87;75.66;99440.78;5051241;28;20105;-66
2022/06/20 04:49:57;;;;;;;6.15;3.60;;;;;;;23.81;77.28;99422.31;5053220;28;20032;-66
2022/06/20 04:52:26;;;;;;;10.63;4.20;;;;;;;23.94;76.29;99441.88;5053444;28;20044;-66
2022/06/20 04:54:52;;;;;;;8.55;3.72;;;;;;;23.97;76.47;99452.47;5052812;28;20021;-66
2022/06/20 04:57:18;;;;;;;8.68;3.53;;;;;;;24.04;75.95;99457.19;5052943;28;20065;-66
2022/06/20 04:59:44;;;;;;;8.80;5.13;;;;;;;23.98;74.60;99459.63;5052995;28;20111;-66
2022/06/20 05:02:15;;;;;;;23.90;4.50;;;;;;;24.01;75.90;99443.03;5052888;28;20354;-66
2022/06/20 05:04:43;;;;;;;8.93;3.63;;;;;;;24.13;76.53;99448.16;5052866;28;20025;-66
2022/06/20 05:07:39;;;;;;;10.20;3.90;;;;;;;24.16;75.46;99463.28;5052573;28;20025;-65
2022/06/20 05:10:19;;;;;;;8.57;3.65;;;;;;;24.22;75.35;99474.44;5051626;28;20086;-65
2022/06/20 05:12:51;;;;;;;10.75;3.45;;;;;;;24.24;74.60;99480.56;5050675;28;20074;-65
2022/06/20 05:15:41;;;;;;;8.98;3.35;;;;;;;24.20;72.28;99483.75;5046971;28;20029;-65
2022/06/20 05:18:21;;;;;;;10.98;3.60;;;;;;;24.22;70.75;99484.44;5028601;28;20051;-65
2022/06/20 05:20:47;;;;;;;8.38;3.28;;;;;;;24.20;71.94;99491.91;5030311;28;20087;-65
2022/06/20 05:23:20;;;;;;;8.10;3.00;;;;;;;24.31;73.38;99495.28;5030585;28;20037;-65
2022/06/20 05:25:45;;;;;;;9.85;3.10;;;;;;;24.36;71.51;99483.97;5030842;28;20023;-65
2022/06/20 05:28:19;;;;;;;7.07;2.90;;;;;;;24.30;71.49;99476.41;5064142;28;20050;-65
2022/06/20 05:30:46;;;;;;;5.55;3.15;;;;;;;24.28;70.79;99494.72;5070449;28;20029;-65
2022/06/20 05:33:17;;;;;;;6.05;2.80;;;;;;;24.19;70.29;99491.03;5071581;28;20446;-65
2022/06/20 05:35:57;;;;;;;10.75;3.45;;;;;;;24.23;70.20;99494.31;5072443;28;20060;-65
2022/06/20 05:38:29;;;;;;;7.90;2.80;;;;;;;24.19;71.07;99504.63;5042730;28;20366;-65
2022/06/20 05:40:59;;;;;;;7.82;2.90;;;;;;;24.14;69.84;99514.22;5032162;28;20021;-65
2022/06/20 05:43:30;;;;;;;8.40;3.05;;;;;;;24.17;68.49;99516.63;5032143;28;20047;-65
2022/06/20 05:46:01;;;;;;;11.30;3.15;;;;;;;24.20;69.16;99508.22;5032265;28;20067;-65
2022/06/20 05:48:35;;;;;;;6.70;3.10;;;;;;;24.21;70.56;99515.34;5032255;28;20420;-65
2022/06/20 05:51:03;;;;;;;4.68;2.60;;;;;;;24.25;71.51;99511.34;5032140;28;20026;-65
2022/06/20 05:53:36;;;;;;;5.60;2.92;;;;;;;24.24;69.38;99521.34;5033400;28;20033;-65
2022/06/20 05:56:03;;;;;;;;;;;;;;;24.09;69.22;99522.81;5052483;28;20416;-65
2022/06/20 05:58:33;;;;;;;4.30;2.38;;;;;;;24.14;71.05;99531.41;5052055;28;19909;-65
2022/06/20 06:01:04;;;;;;;6.88;3.55;;;;;;;24.22;71.06;99536.06;5051816;28;20028;-65
2022/06/20 06:03:41;;;;;;;6.53;3.22;;;;;;;24.24;71.10;99534.94;5051463;28;20032;-65
2022/06/20 06:06:19;;;;;;;5.32;2.55;;;;;;;24.30;72.20;99531.63;5051631;28;20472;-65
2022/06/20 06:09:23;;;;;;;8.13;2.85;;;;;;;24.54;67.85;99533.84;5051861;28;20480;-65
2022/06/20 06:12:00;;;;;;;6.68;2.60;;;;;;;24.56;65.69;99543.53;5049219;28;20059;-65
2022/06/20 06:14:31;;;;;;;6.28;2.70;;;;;;;24.51;66.49;99534.13;5051699;28;20052;-65
2022/06/20 06:17:06;;;;;;;8.18;3.10;;;;;;;24.60;65.72;99535.94;5050171;28;20033;-65
2022/06/20 06:19:48;;;;;;;7.40;3.13;;;;;;;24.88;65.72;99532.25;5049191;28;20024;-65
2022/06/20 06:22:25;;;;;;;6.88;2.70;;;;;;;25.17;63.61;99527.47;5047214;28;20021;-65
2022/06/20 06:25:06;;;;;;;8.90;3.50;;;;;;;25.38;63.84;99530.81;5036939;28;20033;-65
2022/06/20 06:27:34;;;;;;;5.30;2.58;;;;;;;25.53;63.18;99534.72;5052490;28;20028;-65
2022/06/20 06:30:15;;;;;;;12.45;3.72;;;;;;;25.76;62.94;99546.84;5069636;28;20029;-65
2022/06/20 06:32:49;;;;;;;7.82;2.80;;;;;;;25.94;62.39;99560.44;5051597;28;20029;-65
2022/06/20 06:35:19;;;;;;;5.95;2.80;;;;;;;26.11;61.95;99556.88;5051345;28;20029;-65
2022/06/20 06:37:56;;;;;;;8.55;3.08;;;;;;;26.52;61.01;99566.19;5051076;28;20044;-66
2022/06/20 06:40:33;;;;;;;7.10;2.97;;;;;;;26.70;60.01;99569.72;5051428;28;20492;-66
2022/06/20 06:43:01;;;;;;;7.82;3.10;;;;;;;26.77;59.57;99581.72;5051149;28;20024;-65
2022/06/20 06:45:33;;;;;;;8.77;3.00;;;;;;;27.01;59.79;99596.31;5050907;28;20120;-65
2022/06/20 06:48:29;;;;;;;7.60;2.85;;;;;;;27.16;61.42;99599.28;5037233;28;20028;-65
2022/06/20 06:51:04;;;;;;;7.05;2.63;;;;;;;27.36;62.48;99608.94;5030636;28;20472;-65
2022/06/20 06:54:02;;;;;;;5.43;2.40;;;;;;;27.32;61.06;99615.75;5032796;28;20029;-65
2022/06/20 06:56:53;;;;;;;9.07;2.58;;;;;;;27.57;61.76;99625.75;5039490;28;20038;-65
2022/06/20 06:59:42;;;;;;;6.55;2.72;;;;;;;27.95;60.58;99627.91;5030778;28;20029;-65
2022/06/20 07:02:15;;;;;;;8.13;2.80;;;;;;;28.14;58.84;99629.44;5030599;28;20037;-65
2022/06/20 07:04:54;;;;;;;;;;;;;;;28.22;57.52;99629.44;5031482;28;20026;-65
2022/06/20 07:07:25;;;;;;;8.13;2.10;;;;;;;28.10;58.13;99645.34;5030711;28;20416;-65
2022/06/20 07:09:53;;;;;;;6.10;3.03;;;;;;;27.87;59.15;99622.38;5031128;28;20040;-65
2022/06/20 07:12:21;;;;;;;9.88;2.78;;;;;;;27.73;59.77;99653.09;5030754;28;20049;-65
2022/06/20 07:15:13;;;;;;;9.65;3.00;;;;;;;27.55;60.71;99657.84;5030871;28;20385;-65
2022/06/20 07:18:04;;;;;;;8.63;4.65;;;;;;;27.17;59.70;99648.28;5030802;28;20042;-65
2022/06/20 07:20:36;;;;;;;7.13;3.25;;;;;;;26.88;61.39;99644.19;5030853;28;20029;-65
2022/06/20 07:23:05;;;;;;;8.50;2.85;;;;;;;26.65;61.70;99649.34;5030691;28;20109;-65
2022/06/20 07:25:37;;;;;;;6.88;2.92;;;;;;;26.68;62.99;99642.69;5030847;28;20059;-65
2022/06/20 07:28:38;;;;;;;6.75;3.03;;;;;;;26.74;60.61;99631.13;5062177;28;20084;-66
2022/06/20 07:31:09;;;;;;;6.57;3.00;;;;;;;26.89;58.28;99622.19;5072922;28;20032;-66
2022/06/20 07:33:44;;;;;;;7.60;2.55;;;;;;;27.16;57.77;99604.75;5074559;28;20024;-66
2022/06/20 07:36:12;;;;;;;6.70;2.97;;;;;;;27.34;57.13;99591.88;5074541;28;20033;-65
2022/06/20 07:38:45;;;;;;;9.82;3.58;;;;;;;27.49;58.33;99617.53;5074070;28;20032;-65
2022/06/20 07:41:22;;;;;;;7.30;3.13;;;;;;;27.79;59.01;99616.06;5074462;28;20032;-65
2022/06/20 07:44:13;;;;;;;6.22;3.00;;;;;;;28.57;54.15;99607.19;5057581;28;20033;-65
2022/06/20 07:46:57;;;;;;;8.15;3.40;;;;;;;29.25;53.06;99599.31;5034508;28;20379;-65
2022/06/20 07:49:53;;;;;;;7.15;2.92;;;;;;;29.98;49.15;99608.84;5034335;28;20033;-65
2022/06/20 07:52:32;;;;;;;8.20;3.22;;;;;;;30.78;48.76;99621.03;5034355;28;20108;-65
2022/06/20 07:55:03;;;;;;;6.68;3.22;;;;;;;31.11;47.64;99616.00;5046946;28;20107;-65
2022/06/20 07:57:35;;;;;;;7.43;3.05;;;;;;;31.13;48.10;99627.66;5052795;28;20063;-65
2022/06/20 08:00:17;;;;;;;7.30;3.85;;;;;;;31.28;47.08;99610.13;5052732;28;20016;-65
2022/06/20 08:02:43;;;;;;;9.32;3.58;;;;;;;31.48;46.82;99627.78;5052363;28;20028;-65
2022/06/20 08:05:16;;;;;;;9.40;3.72;;;;;;;30.95;48.98;99625.31;5051614;28;20485;-65
2022/06/20 08:08:04;;;;;;;9.32;3.85;;;;;;;31.08;48.79;99636.47;5050926;28;20020;-65
2022/06/20 08:10:37;;;;;;;9.27;4.03;;;;;;;31.20;49.25;99656.97;5051233;28;20496;-65
2022/06/20 08:13:09;;;;;;;8.70;3.78;;;;;;;30.92;47.67;99652.28;5051849;28;20055;-65
2022/06/20 08:15:59;;;;;;;8.90;3.88;;;;;;;30.42;49.12;99661.16;5051989;28;20423;-65
2022/06/20 08:18:26;;;;;;;15.98;4.45;;;;;;;29.59;49.85;99646.41;5051666;28;20482;-65
2022/06/20 08:21:01;;;;;;;13.90;5.32;;;;;;;29.56;51.72;99633.06;5052999;28;20111;-65
2022/06/20 08:23:34;;;;;;;11.52;4.55;;;;;;;29.25;56.25;99632.19;5052316;28;20074;-65
2022/06/20 08:26:02;;;;;;;10.00;4.45;;;;;;;28.65;57.75;99629.06;5033781;28;20492;-65
2022/06/20 08:28:36;;;;;;;9.38;4.10;;;;;;;28.28;61.30;99624.16;5072258;28;20549;-65
2022/06/20 08:31:13;;;;;;;10.80;4.00;;;;;;;27.96;62.10;99624.13;5073609;28;20494;-65
2022/06/20 08:33:56;;;;;;;12.68;4.35;;;;;;;27.89;63.08;99625.81;5073486;28;20207;-65
2022/06/20 08:36:33;;;;;;;9.07;5.57;;;;;;;27.81;65.24;99666.78;5066348;28;20074;-65
2022/06/20 08:39:06;;;;;;;9.38;4.20;;;;;;;27.77;64.81;99662.69;5053440;28;20083;-65
2022/06/20 08:42:19;;;;;;;8.75;4.65;;;;;;;27.76;67.32;99666.44;5052647;28;20021;-65
2022/06/20 08:45:09;;;;;;;6.70;3.90;;;;;;;27.79;64.94;99663.34;5051612;28;20033;-65
2022/06/20 08:47:43;;;;;;;12.73;4.55;;;;;;;27.64;64.33;99639.59;5052188;28;20477;-65
2022/06/20 08:50:18;;;;;;;7.40;4.07;;;;;;;27.59;63.45;99651.03;5052278;28;20032;-65
2022/06/20 08:53:02;;;;;;;8.30;3.47;;;;;;;27.73;61.52;99658.56;5046195;28;20136;-65
2022/06/20 08:55:45;;;;;;;11.20;4.70;;;;;;;27.86;61.49;99658.94;5050638;28;20035;-65
2022/06/20 08:58:10;;;;;;;;;;;;;;;27.96;60.73;99648.75;5053132;28;20029;-66
2022/06/20 09:00:57;;;;;;;11.27;4.27;;;;;;;28.27;59.07;99677.13;5045102;28;20348;-65
2022/06/20 09:03:41;;;;;;;6.18;3.35;;;;;;;28.91;58.21;99667.22;5032859;28;20296;-63
2022/06/20 09:06:43;;;;;;;13.25;5.15;;;;;;;29.48;57.27;99652.28;5032772;28;20029;-63
2022/06/20 09:09:17;;;;;;;9.63;4.47;;;;;;;29.38;55.62;99666.22;5032920;28;20123;-63
2022/06/20 09:12:24;;;;;;;8.88;3.78;;;;;;;29.50;53.65;99652.97;5032959;28;20555;-63
2022/06/20 09:15:08;;;;;;;8.32;3.33;;;;;;;29.14;56.06;99662.72;5033009;28;20013;-65
2022/06/20 09:17:44;;;;;;;;;;;;;;;29.03;55.47;99674.00;5051287;28;20064;-63
2022/06/20 09:20:34;;;;;;;5.68;3.33;;;;;;;29.30;55.03;99662.66;5052780;28;19943;-63
2022/06/20 09:23:44;;;;;;;10.13;3.78;;;;;;;29.82;54.65;99652.81;5052304;28;20089;-63
2022/06/20 09:26:15;;;;;;;7.57;3.80;;;;;;;29.99;53.27;99654.44;5052888;28;20051;-63
2022/06/20 09:28:59;;;;;;;6.97;3.78;;;;;;;29.98;55.84;99658.22;5072420;28;20030;-63
2022/06/20 09:31:30;;;;;;;8.75;3.80;;;;;;;29.98;56.28;99669.19;5072138;28;20304;-63
2022/06/20 09:34:08;;;;;;;7.80;3.28;;;;;;;30.03;55.08;99677.75;5072584;28;20036;-63
2022/06/20 09:36:39;;;;;;;10.43;3.60;;;;;;;29.84;57.68;99675.44;5072241;28;20035;-63
2022/06/20 09:39:40;;;;;;;8.48;3.60;;;;;;;30.11;57.08;99669.44;5072067;28;20021;-63
2022/06/20 09:42:06;;;;;;;10.68;3.78;;;;;;;30.25;57.37;99681.53;5072141;28;20131;-63
2022/06/20 09:44:39;;;;;;;8.48;4.03;;;;;;;30.36;57.80;99668.22;5072309;28;20103;-63
2022/06/20 09:47:10;;;;;;;6.03;3.30;;;;;;;30.21;55.77;99664.56;5072204;28;20026;-63
2022/06/20 09:50:12;;;;;;;7.18;3.58;;;;;;;29.89;55.77;99666.66;5070819;28;20059;-63
2022/06/20 09:53:22;;;;;;;10.25;3.97;;;;;;;29.56;58.25;99668.69;5030620;28;20132;-64
2022/06/20 09:56:13;;;;;;;8.55;3.30;;;;;;;29.30;60.02;99662.66;5031374;28;20033;-64
2022/06/20 09:59:09;;;;;;;10.65;4.32;;;;;;;29.17;61.66;99662.38;5032134;28;20151;-64
2022/06/20 10:01:41;;;;;;;7.57;3.55;;;;;;;29.22;61.99;99659.94;5043425;28;20143;-64
2022/06/20 10:04:31;;;;;;;8.35;3.60;;;;;;;28.92;60.95;99664.28;5051824;28;20024;-64
2022/06/20 10:07:12;;;;;;;11.07;3.85;;;;;;;28.81;64.00;99661.06;5051979;28;20021;-64
2022/06/20 10:10:04;;;;;;;9.23;3.78;;;;;;;28.73;63.21;99664.66;5051636;28;20028;-65
2022/06/20 10:12:48;;;;;;;8.57;3.20;;;;;;;28.67;63.80;99659.03;5051647;28;20084;-65
2022/06/20 10:15:30;;;;;;;10.65;4.03;;;;;;;28.67;64.11;99659.03;5051291;28;20029;-64
2022/06/20 10:18:13;;;;;;;12.00;3.80;;;;;;;28.64;64.83;99662.09;5051603;28;20040;-64
2022/06/20 10:21:09;;;;;;;12.45;4.03;;;;;;;28.59;67.09;99656.28;5051413;28;20032;-65
2022/06/20 10:23:46;;;;;;;7.95;3.45;;;;;;;28.56;67.22;99670.34;5049228;28;20033;-65
2022/06/20 10:26:22;;;;;;;11.38;3.97;;;;;;;28.53;67.68;99685.22;5032583;28;20036;-65
2022/06/20 10:29:16;;;;;;;8.82;4.18;;;;;;;28.52;66.91;99688.97;5071367;28;20495;-65
2022/06/20 10:31:52;;;;;;;10.48;3.55;;;;;;;28.78;66.58;99678.69;5071273;28;20028;-63
2022/06/20 10:34:34;;;;;;;10.25;3.70;;;;;;;28.91;65.56;99689.97;5071392;28;20040;-63
2022/06/20 10:37:19;;;;;;;5.15;3.20;;;;;;;28.97;64.98;99694.75;5071323;28;20083;-63
2022/06/20 10:40:07;;;;;;;8.32;3.65;;;;;;;29.17;64.29;99706.19;5070934;28;20036;-63
2022/06/20 10:42:43;;;;;;;9.82;3.78;;;;;;;29.31;64.51;99714.53;5071396;28;20445;-63
2022/06/20 10:45:33;;;;;;;6.78;3.28;;;;;;;29.45;62.09;99715.72;5053513;28;20437;-64
2022/06/20 10:48:13;;;;;;;11.98;3.50;;;;;;;29.54;61.76;99725.59;5051216;28;20017;-64
2022/06/20 10:50:46;;;;;;;5.72;3.10;;;;;;;29.55;59.73;99738.28;5051109;28;20123;-64
2022/06/20 10:53:22;;;;;;;5.72;3.22;;;;;;;29.42;61.09;99743.47;5051065;28;20057;-64
2022/06/20 10:55:53;;;;;;;5.97;3.53;;;;;;;29.41;60.44;99736.25;5033209;28;20485;-64
2022/06/20 10:58:27;;;;;;;9.63;3.15;;;;;;;29.33;59.27;99739.03;5031186;28;20523;-64
2022/06/20 11:01:10;;;;;;;11.55;2.97;;;;;;;29.07;59.75;99738.38;5031170;28;20474;-64
2022/06/20 11:03:50;;;;;;;8.60;3.30;;;;;;;29.09;60.76;99736.38;5033710;28;20120;-64
2022/06/20 11:06:43;;;;;;;7.50;2.97;;;;;;;28.94;61.20;99743.53;5030606;28;20484;-64
2022/06/20 11:09:19;;;;;;;5.07;2.70;;;;;;;29.15;61.63;99741.13;5030945;28;20031;-64
2022/06/20 11:11:59;;;;;;;6.20;3.20;;;;;;;29.19;60.03;99750.72;5030654;28;20084;-64
2022/06/20 11:15:32;;;;;;;5.35;2.47;;;;;;;29.94;57.31;99752.00;5030887;28;20025;-64
2022/06/20 11:18:33;;;;;;;8.83;2.40;;;;;;;30.62;55.86;99750.22;4956170;28;20166;-64
2022/06/20 11:21:20;;;;;;;6.47;2.45;;;;;;;30.28;54.37;99758.88;5030620;28;20040;-64
2022/06/20 11:24:39;;;;;;;4.90;2.47;;;;;;;30.87;56.23;99754.53;5033062;28;20090;-64
2022/06/20 11:27:26;;;;;;;6.80;2.45;;;;;;;31.31;52.23;99751.81;5043881;28;20391;-64
2022/06/20 11:30:19;;;;;;;6.38;2.50;;;;;;;31.54;52.09;99769.13;5070571;28;20107;-64
2022/06/20 11:33:17;;;;;;;7.85;2.60;;;;;;;31.37;49.34;99756.63;5070806;28;20029;-64
2022/06/20 11:35:52;;;;;;;6.38;2.50;;;;;;;31.44;51.72;99774.91;5070725;28;20055;-64
2022/06/20 11:38:18;;;;;;;9.43;2.72;;;;;;;31.33;50.60;99783.63;5070371;28;20373;-64
2022/06/20 11:41:05;;;;;;;5.90;2.45;;;;;;;31.22;52.55;99780.47;5071137;28;20178;-64
2022/06/20 11:43:42;;;;;;;5.72;1.92;;;;;;;31.16;51.80;99783.94;5069139;28;20021;-64
2022/06/20 11:46:24;;;;;;;7.00;2.20;;;;;;;30.82;51.86;99779.78;5068495;28;20081;-64
2022/06/20 11:49:17;;;;;;;5.13;2.25;;;;;;;30.81;52.21;99780.81;5068477;28;20335;-64
2022/06/20 11:51:48;;;;;;;5.78;1.98;;;;;;;31.55;50.51;99788.19;5068455;28;20023;-64
2022/06/20 11:54:45;;;;;;;6.43;2.15;;;;;;;32.22;49.93;99782.56;5052842;28;20029;-64
2022/06/20 11:57:25;;;;;;;5.40;2.15;;;;;;;32.79;49.06;99787.03;5029184;28;20041;-64
2022/06/20 11:59:59;;;;;;;8.70;2.17;;;;;;;32.87;46.58;99786.91;5033012;28;20485;-64
2022/06/20 12:02:41;;;;;;;4.43;2.20;;;;;;;32.71;45.83;99795.44;5035129;28;20093;-64
2022/06/20 12:05:25;;;;;;;7.40;2.10;;;;;;;33.35;48.54;99791.59;5050211;28;20017;-64
2022/06/20 12:08:00;;;;;;;3.65;1.95;;;;;;;33.87;44.66;99790.25;5050408;28;20051;-64
2022/06/20 12:10:58;;;;;;;5.25;2.10;;;;;;;33.55;45.56;99785.38;5050245;28;20029;-64
2022/06/20 12:13:40;;;;;;;5.65;1.98;;;;;;;33.20;45.79;99782.56;5050170;28;20159;-64
2022/06/20 12:16:21;;;;;;;3.47;1.83;;;;;;;33.20;45.32;99792.72;5051041;28;20704;-64
2022/06/20 12:24:45;;;;;;;4.15;1.42;;;;;;;32.93;43.87;99786.13;5042872;28;20063;-64
2022/06/20 12:27:14;;;;;;;3.03;1.55;;;;;;;32.87;44.82;99784.16;5050766;28;20020;-64
2022/06/20 12:29:40;;;;;;;4.72;1.67;;;;;;;33.00;45.05;99787.06;5073833;28;20384;-64
2022/06/20 12:32:19;;;;;;;2.95;1.58;;;;;;;33.10;44.89;99771.03;5073474;28;20024;-64